createdAt,value
2023-05-16T00:01:06.154Z,13.63
2023-05-16T00:03:34.704Z,13.73
2023-05-16T00:06:02.777Z,16.75
2023-05-16T00:08:30.912Z,14.57
2023-05-16T00:10:58.926Z,13.93
2023-05-16T00:13:27.342Z,15.48
2023-05-16T00:15:56.370Z,13.80
2023-05-16T00:18:27.225Z,13.18
2023-05-16T00:20:55.754Z,13.65
2023-05-16T00:23:23.658Z,13.07
2023-05-16T00:25:51.517Z,14.00
2023-05-16T00:28:19.405Z,11.63
2023-05-16T00:30:47.619Z,13.10
2023-05-16T00:33:17.280Z,12.75
2023-05-16T00:35:45.402Z,12.43
2023-05-16T00:38:13.290Z,12.45
2023-05-16T00:40:41.206Z,13.38
2023-05-16T00:43:10.904Z,12.70
2023-05-16T00:45:38.961Z,14.05
2023-05-16T00:48:07.057Z,12.68
2023-05-16T00:50:36.803Z,13.13
2023-05-16T00:53:04.816Z,11.63
2023-05-16T00:55:33.072Z,11.75
2023-05-16T00:58:02.145Z,12.85
2023-05-16T01:00:31.285Z,12.57
2023-05-16T01:03:00.689Z,12.48
2023-05-16T01:05:30.102Z,11.73
2023-05-16T01:07:58.255Z,13.77
2023-05-16T01:10:31.132Z,13.98
2023-05-16T01:13:27.659Z,13.93
2023-05-16T01:16:26.889Z,13.02
2023-05-16T01:27:39.480Z,11.95
2023-05-16T01:30:26.017Z,13.10
2023-05-16T01:32:54.161Z,12.80
2023-05-16T01:35:22.159Z,11.50
2023-05-16T01:38:11.792Z,12.73
2023-05-16T01:41:15.417Z,12.98
2023-05-16T01:43:46.748Z,11.27
2023-05-16T01:46:20.878Z,11.98
2023-05-16T01:48:48.921Z,10.98
2023-05-16T01:51:17.213Z,12.70
2023-05-16T01:53:45.674Z,12.77
2023-05-16T01:56:17.416Z,13.60
2023-05-16T01:58:48.576Z,14.52
2023-05-16T02:01:16.492Z,12.88
2023-05-16T02:03:44.577Z,17.65
2023-05-16T02:06:18.841Z,18.10
2023-05-16T02:08:46.937Z,17.27
2023-05-16T02:11:14.802Z,15.55
2023-05-16T02:13:43.255Z,14.57
2023-05-16T02:16:11.953Z,14.35
2023-05-16T02:18:39.938Z,15.77
2023-05-16T02:21:07.817Z,15.27
2023-05-16T02:23:37.444Z,15.55
2023-05-16T02:26:05.760Z,14.50
2023-05-16T02:28:33.626Z,13.82
2023-05-16T02:31:01.972Z,14.27
2023-05-16T02:33:30.763Z,15.95
2023-05-16T02:38:27.544Z,16.92
2023-05-16T02:40:56.899Z,15.85
2023-05-16T02:43:24.723Z,14.45
2023-05-16T02:45:53.343Z,15.48
2023-05-16T02:48:21.301Z,16.13
2023-05-16T02:50:49.741Z,14.27
2023-05-16T02:54:24.194Z,17.63
2023-05-16T02:56:52.250Z,19.65
2023-05-16T02:59:20.789Z,16.95
2023-05-16T03:01:48.762Z,17.58
2023-05-16T03:04:16.994Z,15.48
2023-05-16T03:06:45.047Z,15.30
2023-05-16T03:09:12.877Z,15.75
2023-05-16T03:11:40.887Z,13.95
2023-05-16T03:14:09.590Z,15.10
2023-05-16T03:16:39.064Z,15.80
2023-05-16T03:19:07.349Z,14.30
2023-05-16T03:21:35.388Z,14.00
2023-05-16T03:24:04.700Z,14.40
2023-05-16T03:26:32.681Z,14.73
2023-05-16T03:29:00.657Z,12.95
2023-05-16T03:31:28.744Z,13.48
2023-05-16T03:33:56.863Z,14.18
2023-05-16T03:36:24.890Z,15.32
2023-05-16T03:38:52.929Z,13.15
2023-05-16T03:41:21.572Z,14.15
2023-05-16T03:43:49.464Z,13.80
2023-05-16T03:46:17.531Z,18.42
2023-05-16T03:48:45.471Z,14.80
2023-05-16T03:51:13.460Z,16.67
2023-05-16T03:53:42.231Z,16.33
2023-05-16T03:56:10.157Z,14.30
2023-05-16T03:58:38.355Z,16.77
2023-05-16T04:01:06.439Z,22.45
2023-05-16T04:03:34.366Z,20.33
2023-05-16T04:06:02.424Z,17.85
2023-05-16T04:08:30.227Z,19.75
2023-05-16T04:10:58.124Z,18.35
2023-05-16T04:13:26.243Z,19.50
2023-05-16T04:15:54.415Z,15.63
2023-05-16T04:18:22.352Z,15.38
2023-05-16T04:20:50.505Z,14.75
2023-05-16T04:23:18.766Z,15.52
2023-05-16T04:25:46.894Z,15.55
2023-05-16T04:28:15.118Z,16.30
2023-05-16T04:30:43.046Z,13.23
2023-05-16T04:33:11.173Z,13.80
2023-05-16T04:35:40.044Z,16.00
2023-05-16T04:38:08.815Z,14.02
2023-05-16T04:40:36.695Z,17.38
2023-05-16T04:43:04.775Z,13.65
2023-05-16T04:45:32.650Z,12.70
2023-05-16T04:48:01.733Z,15.25
2023-05-16T04:50:30.237Z,17.98
2023-05-16T04:52:58.322Z,13.52
2023-05-16T04:55:26.801Z,15.00
2023-05-16T04:57:55.080Z,13.57
2023-05-16T05:00:23.168Z,18.00
2023-05-16T05:02:51.142Z,15.27
2023-05-16T05:05:19.284Z,14.85
2023-05-16T05:07:47.734Z,14.93
2023-05-16T05:10:15.645Z,15.98
2023-05-16T05:12:44.024Z,15.40
2023-05-16T05:15:12.036Z,19.30
2023-05-16T05:17:40.177Z,15.15
2023-05-16T05:20:08.874Z,42.63
2023-05-16T05:22:36.912Z,15.30
2023-05-16T05:25:06.426Z,15.13
2023-05-16T05:27:34.234Z,15.55
2023-05-16T05:30:03.154Z,16.00
2023-05-16T05:32:31.705Z,14.40
2023-05-16T05:34:59.780Z,12.48
2023-05-16T05:37:28.064Z,14.40
2023-05-16T05:39:57.073Z,13.15
2023-05-16T05:42:24.981Z,13.50
2023-05-16T05:44:52.906Z,14.85
2023-05-16T05:47:22.020Z,12.52
2023-05-16T05:49:51.040Z,14.52
2023-05-16T05:52:19.062Z,12.60
2023-05-16T05:54:48.648Z,16.50
2023-05-16T05:57:17.511Z,17.60
2023-05-16T05:59:45.773Z,12.50
2023-05-16T06:02:14.469Z,30.05
2023-05-16T06:07:11.096Z,14.02
2023-05-16T06:09:39.206Z,11.27
2023-05-16T06:12:07.626Z,13.05
2023-05-16T06:14:35.649Z,12.02
2023-05-16T06:17:03.843Z,14.77
2023-05-16T06:19:31.876Z,11.45
2023-05-16T06:21:59.727Z,12.10
2023-05-16T06:24:30.051Z,11.77
2023-05-16T06:26:58.299Z,10.13
2023-05-16T06:29:26.241Z,12.57
2023-05-16T06:31:54.401Z,12.75
2023-05-16T06:34:28.539Z,11.75
2023-05-16T06:36:56.643Z,11.10
2023-05-16T06:39:24.571Z,13.27
2023-05-16T06:41:56.215Z,10.43
2023-05-16T06:44:24.714Z,9.82
2023-05-16T06:46:53.364Z,10.00
2023-05-16T06:49:21.584Z,12.70
2023-05-16T06:51:49.658Z,12.15
2023-05-16T06:54:17.592Z,10.32
2023-05-16T06:56:46.123Z,10.38
2023-05-16T06:59:14.232Z,11.75
2023-05-16T07:01:42.760Z,11.07
2023-05-16T07:06:39.128Z,11.77
2023-05-16T07:09:07.629Z,15.25
2023-05-16T07:11:35.773Z,15.30
2023-05-16T07:14:03.759Z,12.05
2023-05-16T07:16:31.902Z,11.73
2023-05-16T07:19:00.019Z,14.23
2023-05-16T07:21:28.321Z,13.02
2023-05-16T07:23:56.357Z,12.60
2023-05-16T07:26:24.398Z,10.70
2023-05-16T07:28:52.577Z,11.02
2023-05-16T07:31:21.123Z,11.23
2023-05-16T07:33:49.845Z,12.23
2023-05-16T07:36:18.138Z,12.63
2023-05-16T07:38:46.482Z,10.88
2023-05-16T07:41:14.624Z,11.75
2023-05-16T07:43:42.783Z,11.80
2023-05-16T07:46:11.959Z,11.18
2023-05-16T07:48:40.282Z,10.45
2023-05-16T07:51:08.381Z,10.15
2023-05-16T07:53:36.903Z,12.20
2023-05-16T07:56:05.611Z,10.25
2023-05-16T07:58:33.867Z,9.95
2023-05-16T08:01:02.044Z,14.13
2023-05-16T08:03:30.635Z,9.05
2023-05-16T08:08:26.842Z,10.65
2023-05-16T08:10:54.752Z,9.85
2023-05-16T08:13:22.943Z,8.70
2023-05-16T08:15:51.153Z,9.98
2023-05-16T08:18:22.077Z,10.07
2023-05-16T08:20:51.601Z,10.77
2023-05-16T08:23:19.563Z,10.70
2023-05-16T08:25:47.837Z,8.73
2023-05-16T08:28:15.910Z,8.32
2023-05-16T08:30:45.214Z,9.07
2023-05-16T08:33:15.451Z,8.98
2023-05-16T08:35:44.447Z,8.43
2023-05-16T08:38:12.553Z,9.27
2023-05-16T08:40:41.341Z,8.85
2023-05-16T08:43:09.313Z,9.35
2023-05-16T08:45:37.319Z,10.73
2023-05-16T08:48:08.698Z,9.40
2023-05-16T08:50:38.599Z,9.65
2023-05-16T08:53:09.935Z,9.38
2023-05-16T08:55:41.713Z,9.25
2023-05-16T08:58:10.180Z,10.75
2023-05-16T09:00:40.009Z,9.68
2023-05-16T09:03:08.557Z,9.57
2023-05-16T09:08:04.630Z,9.18
2023-05-16T09:10:32.788Z,9.15
2023-05-16T09:13:00.960Z,8.90
2023-05-16T09:15:33.535Z,11.20
2023-05-16T09:18:03.428Z,8.13
2023-05-16T09:20:31.902Z,8.48
2023-05-16T09:23:00.919Z,9.32
2023-05-16T09:25:32.688Z,9.80
2023-05-16T09:28:02.838Z,10.05
2023-05-16T09:30:37.427Z,9.77
2023-05-16T09:33:07.503Z,8.43
2023-05-16T09:35:44.918Z,8.70
2023-05-16T09:38:17.818Z,8.85
2023-05-16T09:40:46.668Z,9.15
2023-05-16T09:45:48.529Z,10.77
2023-05-16T09:48:18.353Z,9.82
2023-05-16T09:50:53.240Z,9.30
2023-05-16T09:53:29.174Z,9.63
2023-05-16T09:56:26.953Z,10.43
2023-05-16T09:58:55.064Z,8.63
2023-05-16T10:01:23.659Z,9.35
2023-05-16T10:03:52.942Z,10.70
2023-05-16T10:06:21.468Z,11.55
2023-05-16T10:08:51.142Z,14.10
2023-05-16T10:11:19.935Z,10.02
2023-05-16T10:13:53.578Z,9.60
2023-05-16T10:16:24.241Z,9.50
2023-05-16T10:18:53.368Z,13.43
2023-05-16T10:21:23.936Z,9.10
2023-05-16T10:23:52.972Z,8.98
2023-05-16T10:26:22.835Z,8.95
2023-05-16T10:28:52.073Z,9.48
2023-05-16T10:31:21.193Z,8.95
2023-05-16T10:33:49.410Z,8.50
2023-05-16T10:36:18.646Z,8.38
2023-05-16T10:38:48.195Z,8.50
2023-05-16T10:41:17.471Z,8.57
2023-05-16T10:43:57.097Z,8.20
2023-05-16T10:46:26.976Z,8.15
2023-05-16T10:48:56.546Z,7.63
2023-05-16T10:51:39.344Z,9.15
2023-05-16T10:54:14.057Z,8.50
2023-05-16T10:56:43.646Z,8.20
2023-05-16T10:59:25.744Z,7.75
2023-05-16T11:01:56.091Z,7.70
2023-05-16T11:04:24.511Z,7.03
2023-05-16T11:06:53.928Z,8.60
2023-05-16T11:09:24.567Z,7.85
2023-05-16T11:11:52.860Z,7.55
2023-05-16T11:14:24.590Z,8.20
2023-05-16T11:17:14.200Z,7.13
2023-05-16T11:19:43.919Z,8.77
2023-05-16T11:22:22.040Z,7.53
2023-05-16T11:24:52.555Z,7.75
2023-05-16T11:27:32.728Z,9.95
2023-05-16T11:30:13.516Z,7.93
2023-05-16T11:32:46.642Z,7.38
2023-05-16T11:35:17.341Z,7.80
2023-05-16T11:37:47.286Z,8.93
2023-05-16T11:40:17.458Z,8.70
2023-05-16T11:42:48.118Z,8.95
2023-05-16T11:45:18.275Z,7.82
2023-05-16T11:47:48.629Z,7.55
2023-05-16T11:50:22.413Z,9.15
2023-05-16T11:52:57.739Z,7.65
2023-05-16T11:55:41.407Z,10.13
2023-05-16T11:58:12.589Z,9.10
2023-05-16T12:00:50.181Z,9.60
2023-05-16T12:03:20.820Z,8.95
2023-05-16T12:05:54.044Z,9.18
2023-05-16T12:08:23.103Z,8.65
2023-05-16T12:10:53.308Z,9.90
2023-05-16T12:13:24.121Z,8.63
2023-05-16T12:15:56.065Z,7.95
2023-05-16T12:18:25.193Z,7.75
2023-05-16T12:20:53.994Z,7.35
2023-05-16T12:23:22.189Z,6.90
2023-05-16T12:25:50.284Z,9.93
2023-05-16T12:28:18.384Z,7.20
2023-05-16T12:30:48.393Z,6.80
2023-05-16T12:33:17.837Z,6.75
2023-05-16T12:35:48.064Z,7.68
2023-05-16T12:38:17.770Z,8.05
2023-05-16T12:40:47.029Z,6.95
2023-05-16T12:43:21.435Z,7.13
2023-05-16T12:45:57.598Z,6.60
2023-05-16T12:48:34.729Z,8.18
2023-05-16T12:51:16.581Z,7.90
2023-05-16T12:54:01.318Z,8.32
2023-05-16T12:56:41.379Z,6.20
2023-05-16T12:59:09.920Z,7.32
2023-05-16T13:01:38.756Z,7.35
2023-05-16T13:04:07.242Z,9.05
2023-05-16T13:06:55.430Z,9.13
2023-05-16T13:09:24.651Z,5.30
2023-05-16T13:11:53.783Z,6.15
2023-05-16T13:14:21.928Z,8.05
2023-05-16T13:16:50.217Z,8.68
2023-05-16T13:19:18.400Z,7.30
2023-05-16T13:21:46.643Z,7.60
2023-05-16T13:24:14.661Z,7.25
2023-05-16T13:26:42.769Z,8.98
2023-05-16T13:29:12.091Z,6.32
2023-05-16T13:31:40.383Z,7.68
2023-05-16T13:34:08.450Z,7.53
2023-05-16T13:36:52.288Z,7.93
2023-05-16T13:39:22.551Z,9.68
2023-05-16T13:41:51.006Z,5.90
2023-05-16T13:44:19.168Z,6.78
2023-05-16T13:46:47.351Z,7.82
2023-05-16T13:49:15.230Z,7.40
2023-05-16T13:51:43.859Z,6.25
2023-05-16T13:56:39.868Z,6.30
2023-05-16T13:59:08.675Z,6.50
2023-05-16T14:01:38.353Z,5.75
2023-05-16T14:04:06.519Z,6.65
2023-05-16T14:06:34.660Z,7.25
2023-05-16T14:09:03.569Z,6.93
2023-05-16T14:11:31.593Z,7.78
2023-05-16T14:14:00.065Z,6.47
2023-05-16T14:16:28.250Z,7.53
2023-05-16T14:18:56.471Z,10.50
2023-05-16T14:21:25.027Z,8.75
2023-05-16T14:23:53.893Z,7.30
2023-05-16T14:26:25.757Z,7.28
2023-05-16T14:28:54.347Z,7.65
2023-05-16T14:31:23.644Z,6.72
2023-05-16T14:33:51.894Z,7.55
2023-05-16T14:36:20.718Z,8.70
2023-05-16T14:41:18.185Z,7.30
2023-05-16T14:46:15.620Z,10.10
2023-05-16T14:48:43.629Z,9.07
2023-05-16T14:51:12.347Z,8.25
2023-05-16T14:56:09.011Z,10.27
2023-05-16T14:58:37.506Z,8.77
2023-05-16T15:01:06.308Z,7.40
2023-05-16T15:03:46.965Z,10.82
2023-05-16T15:06:22.785Z,8.88
2023-05-16T15:11:19.961Z,8.95
2023-05-16T15:13:49.146Z,6.88
2023-05-16T15:16:17.976Z,9.13
2023-05-16T15:18:47.349Z,8.68
2023-05-16T15:21:16.019Z,7.82
2023-05-16T15:23:44.953Z,8.82
2023-05-16T15:26:13.415Z,10.18
2023-05-16T15:28:41.825Z,9.93
2023-05-16T15:33:39.236Z,8.68
2023-05-16T15:38:36.929Z,9.68
2023-05-16T15:41:18.758Z,9.02
2023-05-16T15:43:55.079Z,10.80
2023-05-16T15:46:23.665Z,8.93
2023-05-16T15:48:52.894Z,9.25
2023-05-16T15:51:21.535Z,8.98
2023-05-16T15:53:50.257Z,8.55
2023-05-16T15:56:18.811Z,8.73
2023-05-16T16:01:15.502Z,9.38
2023-05-16T16:06:12.789Z,8.98
2023-05-16T16:08:41.257Z,13.50
2023-05-16T16:11:09.976Z,9.20
2023-05-16T16:16:07.579Z,9.05
2023-05-16T16:21:04.546Z,14.40
2023-05-16T16:23:33.407Z,11.13
2023-05-16T16:26:02.120Z,10.20
2023-05-16T16:28:30.771Z,13.80
2023-05-16T16:30:59.462Z,16.27
2023-05-16T16:33:27.954Z,16.90
2023-05-16T16:35:56.451Z,15.00
2023-05-16T16:40:55.667Z,13.30
2023-05-16T16:43:24.173Z,12.10
2023-05-16T16:45:53.096Z,16.08
2023-05-16T16:48:21.565Z,18.23
2023-05-16T16:50:50.171Z,12.50
2023-05-16T16:53:20.057Z,16.35
2023-05-16T16:55:48.635Z,11.70
2023-05-16T17:00:45.985Z,14.48
2023-05-16T17:03:14.554Z,13.50
2023-05-16T17:05:43.458Z,14.05
2023-05-16T17:08:12.532Z,14.30
2023-05-16T17:10:41.416Z,13.50
2023-05-16T17:13:12.679Z,12.32
2023-05-16T17:15:41.848Z,16.08
2023-05-16T17:18:10.561Z,15.18
2023-05-16T17:20:39.215Z,14.05
2023-05-16T17:23:07.621Z,14.95
2023-05-16T17:28:04.326Z,15.90
2023-05-16T17:30:32.975Z,15.68
2023-05-16T17:33:01.580Z,15.25
2023-05-16T17:37:59.555Z,14.70
2023-05-16T17:40:28.127Z,14.13
2023-05-16T17:45:28.943Z,12.05
2023-05-16T17:47:59.594Z,12.80
2023-05-16T17:50:29.886Z,16.13
2023-05-16T17:52:59.248Z,12.20
2023-05-16T17:55:28.187Z,13.88
2023-05-16T17:57:56.912Z,13.75
2023-05-16T18:00:25.493Z,14.93
2023-05-16T18:02:54.464Z,14.70
2023-05-16T18:05:23.673Z,13.82
2023-05-16T18:07:52.573Z,16.58
2023-05-16T18:10:21.478Z,16.33
2023-05-16T18:15:19.005Z,14.27
2023-05-16T18:17:47.367Z,14.75
2023-05-16T18:20:16.044Z,14.93
2023-05-16T18:25:13.018Z,14.10
2023-05-16T18:27:41.960Z,15.75
2023-05-16T18:30:13.141Z,18.60
2023-05-16T18:32:41.984Z,16.35
2023-05-16T18:35:10.924Z,12.52
2023-05-16T18:40:08.600Z,13.77
2023-05-16T18:42:36.928Z,13.85
2023-05-16T18:45:05.644Z,15.82
2023-05-16T18:47:34.515Z,15.93
2023-05-16T18:50:03.888Z,15.05
2023-05-16T18:52:34.719Z,15.75
2023-05-16T18:55:03.296Z,13.88
2023-05-16T18:57:31.820Z,17.02
2023-05-16T19:00:01.277Z,15.50
2023-05-16T19:02:41.662Z,16.77
2023-05-16T19:05:11.786Z,16.52
2023-05-16T19:07:41.284Z,21.23
2023-05-16T19:10:10.252Z,20.83
2023-05-16T19:12:38.875Z,22.92
2023-05-16T19:15:08.173Z,14.73
2023-05-16T19:17:36.823Z,14.65
2023-05-16T19:20:07.056Z,19.25
2023-05-16T19:22:36.559Z,13.15
2023-05-16T19:25:06.259Z,14.73
2023-05-16T19:27:34.704Z,14.95
2023-05-16T19:30:03.128Z,17.38
2023-05-16T19:32:32.013Z,15.57
2023-05-16T19:35:00.703Z,12.55
2023-05-16T19:37:29.366Z,16.35
2023-05-16T19:39:57.872Z,15.57
2023-05-16T19:44:55.055Z,11.35
2023-05-16T19:49:51.988Z,11.18
2023-05-16T19:52:20.547Z,10.35
2023-05-16T19:54:54.263Z,10.65
2023-05-16T19:57:22.959Z,10.25
2023-05-16T19:59:51.822Z,10.63
2023-05-16T20:04:52.508Z,10.40
2023-05-16T20:07:21.131Z,10.82
2023-05-16T20:09:49.690Z,11.57
2023-05-16T20:12:18.363Z,12.73
2023-05-16T20:14:47.038Z,11.65
2023-05-16T20:17:18.512Z,12.43
2023-05-16T20:19:47.431Z,16.63
2023-05-16T20:24:44.332Z,11.95
2023-05-16T20:27:12.911Z,17.15
2023-05-16T20:32:09.179Z,14.77
2023-05-16T20:34:39.134Z,11.30
2023-05-16T20:37:08.442Z,13.15
2023-05-16T20:39:36.597Z,10.98
2023-05-16T20:42:13.673Z,12.68
2023-05-16T20:44:42.045Z,10.00
2023-05-16T20:47:10.505Z,11.60
2023-05-16T20:49:40.091Z,10.15
2023-05-16T20:52:09.010Z,12.30
2023-05-16T20:54:37.374Z,10.88
2023-05-16T20:57:05.978Z,8.05
2023-05-16T21:02:06.014Z,7.40
2023-05-16T21:04:34.636Z,8.73
2023-05-16T21:07:04.253Z,14.00
2023-05-16T21:09:34.262Z,9.07
2023-05-16T21:12:02.554Z,9.30
2023-05-16T21:14:30.722Z,9.63
2023-05-16T21:16:58.730Z,8.95
2023-05-16T21:19:26.763Z,9.18
2023-05-16T21:21:54.886Z,9.98
2023-05-16T21:24:22.934Z,11.88
2023-05-16T21:26:50.903Z,9.50
2023-05-16T21:29:18.809Z,11.65
2023-05-16T21:31:46.896Z,10.02
2023-05-16T21:34:15.026Z,12.18
2023-05-16T21:36:42.974Z,12.70
2023-05-16T21:39:11.515Z,29.83
2023-05-16T21:41:39.484Z,22.60
2023-05-16T21:44:07.517Z,14.95
2023-05-16T21:46:35.461Z,10.32
2023-05-16T21:49:03.510Z,14.13
2023-05-16T21:51:31.860Z,11.55
2023-05-16T21:53:59.938Z,8.35
2023-05-16T21:56:28.192Z,8.13
2023-05-16T21:58:56.261Z,10.60
2023-05-16T22:01:26.612Z,11.65
2023-05-16T22:03:58.096Z,9.18
2023-05-16T22:06:26.397Z,11.15
2023-05-16T22:08:55.492Z,12.43
2023-05-16T22:11:23.489Z,8.55
2023-05-16T22:13:51.574Z,6.10
2023-05-16T22:16:19.674Z,14.15
2023-05-16T22:18:47.765Z,12.05
2023-05-16T22:21:16.592Z,9.45
2023-05-16T22:23:44.656Z,13.80
2023-05-16T22:26:12.753Z,8.32
2023-05-16T22:28:40.889Z,5.13
2023-05-16T22:31:08.870Z,7.72
2023-05-16T22:33:37.050Z,8.02
2023-05-16T22:36:05.378Z,7.68
2023-05-16T22:38:33.361Z,7.97
2023-05-16T22:41:01.323Z,4.60
2023-05-16T22:43:29.304Z,6.18
2023-05-16T22:46:06.359Z,4.90
2023-05-16T22:48:34.668Z,7.78
2023-05-16T22:51:02.897Z,8.75
2023-05-16T22:53:32.425Z,6.32
2023-05-16T22:56:00.941Z,5.40
2023-05-16T22:58:28.947Z,6.15
2023-05-16T23:00:58.293Z,7.88
2023-05-16T23:03:27.902Z,8.02
2023-05-16T23:05:56.398Z,5.28
2023-05-16T23:08:24.473Z,6.32
2023-05-16T23:10:52.341Z,8.73
2023-05-16T23:13:20.319Z,8.27
2023-05-16T23:15:48.252Z,6.45
2023-05-16T23:18:16.376Z,6.18
2023-05-16T23:20:44.519Z,6.10
2023-05-16T23:23:12.557Z,5.50
2023-05-16T23:25:41.066Z,10.98
2023-05-16T23:28:09.204Z,7.07
2023-05-16T23:30:37.384Z,5.70
2023-05-16T23:33:05.370Z,8.65
2023-05-16T23:35:33.473Z,4.88
2023-05-16T23:38:01.697Z,5.07
2023-05-16T23:40:49.189Z,5.05
2023-05-16T23:43:17.404Z,7.72
2023-05-16T23:45:45.426Z,5.25
2023-05-16T23:48:13.529Z,4.85
2023-05-16T23:50:41.513Z,5.43
2023-05-16T23:53:09.509Z,5.68
2023-05-16T23:55:37.589Z,5.35
2023-05-16T23:58:05.510Z,4.70
